createdAt,value
2019-03-31T00:00:33.373Z,97505.52
2019-03-31T00:03:00.800Z,97511.17
2019-03-31T00:05:28.416Z,97505.20
2019-03-31T00:07:55.389Z,97503.42
2019-03-31T00:10:22.791Z,97502.77
2019-03-31T00:12:50.252Z,97496.48
2019-03-31T00:15:18.399Z,97503.34
2019-03-31T00:17:46.254Z,97501.12
2019-03-31T00:20:13.407Z,97504.70
2019-03-31T00:22:40.375Z,97503.27
2019-03-31T00:25:07.426Z,97502.00
2019-03-31T00:27:34.942Z,97505.72
2019-03-31T00:30:02.372Z,97511.40
2019-03-31T00:32:29.902Z,97502.94
2019-03-31T00:34:57.304Z,97502.36
2019-03-31T00:37:24.718Z,97501.77
2019-03-31T00:39:52.447Z,97503.94
2019-03-31T00:42:19.871Z,97502.06
2019-03-31T00:44:47.341Z,97499.66
2019-03-31T00:47:14.755Z,97498.66
2019-03-31T00:49:42.168Z,97497.10
2019-03-31T00:52:09.606Z,97495.31
2019-03-31T00:54:37.227Z,97493.66
2019-03-31T00:57:04.704Z,97494.88
2019-03-31T00:59:32.123Z,97489.00
2019-03-31T01:01:59.587Z,97499.29
2019-03-31T01:04:27.033Z,97490.65
2019-03-31T01:06:54.448Z,97493.34
2019-03-31T01:09:22.680Z,97493.92
2019-03-31T01:11:50.174Z,97503.69
2019-03-31T01:14:17.624Z,97497.84
2019-03-31T01:16:45.055Z,97499.99
2019-03-31T01:19:12.521Z,97498.18
2019-03-31T01:21:39.974Z,97501.69
2019-03-31T01:24:07.395Z,97498.16
2019-03-31T01:26:34.795Z,97496.26
2019-03-31T01:29:02.204Z,97499.42
2019-03-31T01:31:30.640Z,97496.66
2019-03-31T01:33:58.027Z,97495.95
2019-03-31T01:36:25.586Z,97495.83
2019-03-31T01:38:53.086Z,97498.82
2019-03-31T01:41:20.510Z,97495.47
2019-03-31T01:43:48.134Z,97498.69
2019-03-31T01:46:15.546Z,97495.90
2019-03-31T01:48:42.955Z,97490.90
2019-03-31T01:51:10.356Z,97488.63
2019-03-31T01:53:37.868Z,97491.14
2019-03-31T01:56:05.295Z,97495.66
2019-03-31T01:58:33.263Z,97488.41
2019-03-31T02:01:00.680Z,97489.06
2019-03-31T02:03:28.202Z,97482.99
2019-03-31T02:05:55.607Z,97492.50
2019-03-31T02:08:23.032Z,97487.52
2019-03-31T02:10:50.459Z,97488.04
2019-03-31T02:13:17.856Z,97488.64
2019-03-31T02:15:45.243Z,97489.60
2019-03-31T02:18:12.723Z,97479.73
2019-03-31T02:20:40.156Z,97477.05
2019-03-31T02:23:07.562Z,97481.13
2019-03-31T02:25:35.047Z,97476.78
2019-03-31T02:28:02.458Z,97478.06
2019-03-31T02:30:30.712Z,97475.75
2019-03-31T02:32:58.180Z,97476.11
2019-03-31T02:35:25.592Z,97475.98
2019-03-31T02:37:52.995Z,97471.88
2019-03-31T02:40:20.405Z,97472.41
2019-03-31T02:42:47.799Z,97464.41
2019-03-31T02:45:15.217Z,97470.44
2019-03-31T02:47:42.637Z,97470.66
2019-03-31T02:50:10.024Z,97462.06
2019-03-31T02:52:37.420Z,97463.91
2019-03-31T02:55:04.826Z,97461.69
2019-03-31T02:57:32.258Z,97463.91
2019-03-31T02:59:59.656Z,97467.56
2019-03-31T03:02:40.492Z,97462.42
2019-03-31T03:04:54.468Z,97455.27
2019-03-31T03:07:21.906Z,97452.60
2019-03-31T03:09:49.329Z,97460.72
2019-03-31T03:12:16.717Z,97465.97
2019-03-31T03:14:44.111Z,97460.82
2019-03-31T03:17:11.549Z,97454.77
2019-03-31T03:19:38.967Z,97452.19
2019-03-31T03:22:06.364Z,97449.58
2019-03-31T03:24:33.760Z,97454.36
2019-03-31T03:27:01.170Z,97453.02
2019-03-31T03:29:28.583Z,97456.69
2019-03-31T03:31:55.967Z,97451.48
2019-03-31T03:34:23.358Z,97449.47
2019-03-31T03:36:50.825Z,97446.07
2019-03-31T03:39:18.225Z,97452.81
2019-03-31T03:41:45.634Z,97449.03
2019-03-31T03:44:13.037Z,97450.52
2019-03-31T03:46:40.435Z,97442.44
2019-03-31T03:49:07.913Z,97442.22
2019-03-31T03:51:35.274Z,97442.67
2019-03-31T03:54:02.684Z,97439.34
2019-03-31T03:56:30.137Z,97433.28
2019-03-31T03:58:57.528Z,97433.08
2019-03-31T04:01:24.971Z,97431.42
2019-03-31T04:03:52.383Z,97429.23
2019-03-31T04:06:19.780Z,97440.58
2019-03-31T04:08:47.195Z,97435.95
2019-03-31T04:11:15.509Z,97434.53
2019-03-31T04:13:42.941Z,97432.38
2019-03-31T04:16:10.328Z,97433.17
2019-03-31T04:18:37.718Z,97430.83
2019-03-31T04:21:05.125Z,97430.55
2019-03-31T04:23:32.554Z,97436.33
2019-03-31T04:25:59.956Z,97430.55
2019-03-31T04:28:27.343Z,97435.16
2019-03-31T04:30:54.748Z,97433.83
2019-03-31T04:33:22.421Z,97434.72
2019-03-31T04:35:49.756Z,97428.81
2019-03-31T04:38:17.158Z,97428.51
2019-03-31T04:40:44.565Z,97430.55
2019-03-31T04:43:11.973Z,97425.37
2019-03-31T04:45:39.362Z,97432.95
2019-03-31T04:48:06.751Z,97426.28
2019-03-31T04:50:34.207Z,97424.23
2019-03-31T04:53:01.654Z,97423.51
2019-03-31T04:55:29.049Z,97422.51
2019-03-31T04:57:56.457Z,97420.16
2019-03-31T05:00:23.864Z,97424.96
2019-03-31T05:02:51.290Z,97427.98
2019-03-31T05:05:18.678Z,97426.89
2019-03-31T05:07:46.097Z,97421.11
2019-03-31T05:10:13.503Z,97431.65
2019-03-31T05:12:40.900Z,97433.41
2019-03-31T05:15:08.348Z,97424.24
2019-03-31T05:17:36.073Z,97418.61
2019-03-31T05:20:03.191Z,97423.36
2019-03-31T05:22:30.599Z,97427.02
2019-03-31T05:24:58.008Z,97426.89
2019-03-31T05:27:26.318Z,97426.95
2019-03-31T05:29:53.748Z,97423.30
2019-03-31T05:32:21.161Z,97431.18
2019-03-31T05:34:48.561Z,97428.11
2019-03-31T05:37:15.967Z,97425.65
2019-03-31T05:39:43.437Z,97426.36
2019-03-31T05:42:10.829Z,97419.39
2019-03-31T05:44:38.232Z,97423.14
2019-03-31T05:47:05.621Z,97429.11
2019-03-31T05:49:33.056Z,97426.75
2019-03-31T05:52:00.540Z,97423.98
2019-03-31T05:54:28.068Z,97429.25
2019-03-31T05:56:55.470Z,97422.34
2019-03-31T05:59:22.912Z,97422.75
2019-03-31T06:01:50.361Z,97426.66
2019-03-31T06:04:17.755Z,97425.61
2019-03-31T06:06:45.170Z,97426.41
2019-03-31T06:09:12.948Z,97424.01
2019-03-31T06:11:40.378Z,97427.06
2019-03-31T06:14:07.823Z,97427.86
2019-03-31T06:16:35.221Z,97432.50
2019-03-31T06:19:02.637Z,97434.53
2019-03-31T06:21:30.159Z,97428.64
2019-03-31T06:23:57.609Z,97431.16
2019-03-31T06:26:25.017Z,97424.64
2019-03-31T06:28:52.434Z,97431.15
2019-03-31T06:31:19.970Z,97419.45
2019-03-31T06:33:47.368Z,97427.41
2019-03-31T06:36:14.782Z,97425.81
2019-03-31T06:38:42.222Z,97429.25
2019-03-31T06:41:09.667Z,97430.17
2019-03-31T06:43:37.131Z,97431.48
2019-03-31T06:46:04.547Z,97427.86
2019-03-31T06:48:32.859Z,97425.21
2019-03-31T06:51:00.255Z,97425.27
2019-03-31T06:53:27.660Z,97424.04
2019-03-31T06:55:55.058Z,97418.39
2019-03-31T06:58:22.471Z,97415.05
2019-03-31T07:00:49.876Z,97412.92
2019-03-31T07:03:17.283Z,97410.16
2019-03-31T07:05:44.695Z,97403.84
2019-03-31T07:08:12.112Z,97413.34
2019-03-31T07:10:39.628Z,97413.18
2019-03-31T07:13:07.039Z,97410.41
2019-03-31T07:15:34.463Z,97425.00
2019-03-31T07:18:01.868Z,97418.86
2019-03-31T07:20:29.277Z,97425.96
2019-03-31T07:22:56.678Z,97427.34
2019-03-31T07:25:24.094Z,97428.81
2019-03-31T07:27:51.768Z,97423.80
2019-03-31T07:30:19.200Z,97417.73
2019-03-31T07:32:46.589Z,97414.28
2019-03-31T07:35:18.799Z,97408.11
2019-03-31T07:37:47.614Z,97412.02
2019-03-31T07:40:09.843Z,97407.59
2019-03-31T07:42:37.204Z,97407.50
2019-03-31T07:45:05.755Z,97402.02
2019-03-31T07:47:33.171Z,97404.66
2019-03-31T07:50:00.817Z,97400.59
2019-03-31T07:52:28.389Z,97398.91
2019-03-31T07:54:55.848Z,97392.44
2019-03-31T07:57:23.363Z,97394.86
2019-03-31T07:59:50.862Z,97392.11
2019-03-31T08:02:18.211Z,97383.23
2019-03-31T08:04:45.996Z,97387.47
2019-03-31T08:07:13.400Z,97388.00
2019-03-31T08:09:41.496Z,97388.86
2019-03-31T08:12:08.910Z,97386.05
2019-03-31T08:14:36.517Z,97385.10
2019-03-31T08:17:03.906Z,97388.19
2019-03-31T08:19:31.468Z,97384.84
2019-03-31T08:21:59.055Z,97387.78
2019-03-31T08:24:26.663Z,97390.34
2019-03-31T08:26:54.347Z,97385.17
2019-03-31T08:29:21.817Z,97392.66
2019-03-31T08:31:49.432Z,97386.06
2019-03-31T08:34:17.675Z,97381.90
2019-03-31T08:36:45.129Z,97381.03
2019-03-31T08:39:12.513Z,97381.78
2019-03-31T08:41:39.988Z,97384.11
2019-03-31T08:44:07.398Z,97375.36
2019-03-31T08:46:34.788Z,97370.40
2019-03-31T08:49:02.203Z,97376.99
2019-03-31T08:51:29.665Z,97375.64
2019-03-31T08:53:57.151Z,97369.77
2019-03-31T08:56:25.033Z,97370.02
2019-03-31T08:58:52.710Z,97377.35
2019-03-31T09:01:20.250Z,97368.48
2019-03-31T09:03:47.843Z,97366.72
2019-03-31T09:06:15.622Z,97366.26
2019-03-31T09:08:43.321Z,97367.69
2019-03-31T09:11:10.868Z,97372.58
2019-03-31T09:13:38.394Z,97366.27
2019-03-31T09:16:05.891Z,97363.04
2019-03-31T09:18:33.343Z,97366.08
2019-03-31T09:21:00.948Z,97359.95
2019-03-31T09:23:29.404Z,97357.84
2019-03-31T09:25:56.896Z,97360.30
2019-03-31T09:28:24.371Z,97352.39
2019-03-31T09:30:51.870Z,97352.71
2019-03-31T09:33:19.285Z,97345.86
2019-03-31T09:35:46.799Z,97349.57
2019-03-31T09:38:14.432Z,97353.09
2019-03-31T09:40:41.889Z,97348.08
2019-03-31T09:43:09.304Z,97343.48
2019-03-31T09:45:36.727Z,97331.42
2019-03-31T09:48:04.122Z,97334.86
2019-03-31T09:50:31.637Z,97323.50
2019-03-31T09:52:59.242Z,97326.93
2019-03-31T09:55:26.739Z,97330.20
2019-03-31T09:57:54.159Z,97334.00
2019-03-31T10:00:28.399Z,97326.14
2019-03-31T10:02:55.850Z,97319.74
2019-03-31T10:05:23.330Z,97319.48
2019-03-31T10:07:50.747Z,97314.75
2019-03-31T10:10:29.173Z,97310.54
2019-03-31T10:12:56.577Z,97296.97
2019-03-31T10:15:24.038Z,97305.02
2019-03-31T10:17:51.454Z,97299.77
2019-03-31T10:20:18.870Z,97297.58
2019-03-31T10:22:46.290Z,97289.72
2019-03-31T10:25:13.719Z,97291.79
2019-03-31T10:27:41.142Z,97287.73
2019-03-31T10:30:08.544Z,97287.34
2019-03-31T10:32:36.489Z,97293.10
2019-03-31T10:35:03.988Z,97293.10
2019-03-31T10:37:31.431Z,97282.94
2019-03-31T10:39:58.856Z,97285.18
2019-03-31T10:42:26.839Z,97281.02
2019-03-31T10:44:54.280Z,97275.14
2019-03-31T10:47:21.716Z,97270.64
2019-03-31T10:49:49.440Z,97264.14
2019-03-31T10:52:16.838Z,97264.09
2019-03-31T10:54:44.333Z,97256.63
2019-03-31T10:57:11.746Z,97250.69
2019-03-31T10:59:39.219Z,97249.41
2019-03-31T11:02:06.166Z,97247.78
2019-03-31T11:04:33.583Z,97250.54
2019-03-31T11:07:03.530Z,97246.09
2019-03-31T11:09:28.592Z,97241.63
2019-03-31T11:11:56.022Z,97238.64
2019-03-31T11:14:23.444Z,97231.86
2019-03-31T11:16:51.009Z,97226.27
2019-03-31T11:19:18.430Z,97225.78
2019-03-31T11:21:45.958Z,97216.33
2019-03-31T11:24:14.068Z,97215.11
2019-03-31T11:26:41.518Z,97211.47
2019-03-31T11:29:09.022Z,97208.78
2019-03-31T11:31:37.495Z,97201.36
2019-03-31T11:34:04.921Z,97201.59
2019-03-31T11:36:32.346Z,97198.95
2019-03-31T11:38:59.759Z,97195.81
2019-03-31T11:41:27.169Z,97192.31
2019-03-31T11:43:54.582Z,97182.47
2019-03-31T11:46:22.951Z,97183.98
2019-03-31T11:48:50.412Z,97181.34
2019-03-31T11:51:17.849Z,97176.73
2019-03-31T11:53:45.443Z,97173.22
2019-03-31T11:56:13.200Z,97166.94
2019-03-31T11:58:40.685Z,97163.05
2019-03-31T12:01:08.103Z,97156.88
2019-03-31T12:03:35.564Z,97161.92
2019-03-31T12:06:03.580Z,97157.45
2019-03-31T12:08:30.991Z,97151.95
2019-03-31T12:10:59.622Z,97153.82
2019-03-31T12:13:27.034Z,97150.64
2019-03-31T12:15:54.450Z,97145.80
2019-03-31T12:18:21.858Z,97144.63
2019-03-31T12:20:49.708Z,97141.59
2019-03-31T12:23:18.459Z,97133.45
2019-03-31T12:25:46.038Z,97134.66
2019-03-31T12:28:13.519Z,97136.83
2019-03-31T12:30:40.961Z,97137.72
2019-03-31T12:33:08.388Z,97135.78
2019-03-31T12:35:35.809Z,97125.38
2019-03-31T12:38:03.212Z,97118.97
2019-03-31T12:40:30.665Z,97117.95
2019-03-31T12:42:58.108Z,97109.61
2019-03-31T12:45:25.522Z,97109.73
2019-03-31T12:47:52.946Z,97109.78
2019-03-31T12:50:20.354Z,97101.44
2019-03-31T12:52:51.010Z,97105.95
2019-03-31T12:55:15.190Z,97097.08
2019-03-31T12:57:43.411Z,97101.77
2019-03-31T13:00:10.828Z,97095.77
2019-03-31T13:02:38.245Z,97092.19
2019-03-31T13:05:05.640Z,97078.29
2019-03-31T13:07:33.118Z,97073.47
2019-03-31T13:10:00.596Z,97075.99
2019-03-31T13:12:28.101Z,97073.08
2019-03-31T13:14:55.498Z,97075.52
2019-03-31T13:17:22.904Z,97061.96
2019-03-31T13:19:49.849Z,97060.31
2019-03-31T13:22:17.252Z,97056.58
2019-03-31T13:24:44.670Z,97054.38
2019-03-31T13:27:11.677Z,97059.34
2019-03-31T13:29:38.624Z,97048.66
2019-03-31T13:32:05.569Z,97057.06
2019-03-31T13:34:32.976Z,97054.35
2019-03-31T13:37:00.374Z,97047.58
2019-03-31T13:39:27.784Z,97047.96
2019-03-31T13:41:55.203Z,97052.89
2019-03-31T13:44:22.614Z,97046.71
2019-03-31T13:46:50.068Z,97039.65
2019-03-31T13:49:17.481Z,97029.88
2019-03-31T13:51:44.883Z,97029.55
2019-03-31T13:54:12.297Z,97022.13
2019-03-31T13:56:40.060Z,97023.41
2019-03-31T13:59:09.126Z,97023.47
2019-03-31T14:01:34.554Z,97016.89
2019-03-31T14:04:03.656Z,97011.55
2019-03-31T14:06:31.626Z,97014.57
2019-03-31T14:08:56.855Z,97006.00
2019-03-31T14:11:24.252Z,97003.16
2019-03-31T14:13:51.917Z,97007.73
2019-03-31T14:16:19.370Z,96998.84
2019-03-31T14:18:46.791Z,96992.61
2019-03-31T14:21:14.287Z,96996.89
2019-03-31T14:23:43.927Z,96995.53
2019-03-31T14:26:10.161Z,96992.50
2019-03-31T14:28:37.568Z,96993.98
2019-03-31T14:31:04.965Z,96989.41
2019-03-31T14:33:32.369Z,96989.25
2019-03-31T14:35:59.780Z,96985.68
2019-03-31T14:38:39.592Z,96977.09
2019-03-31T14:40:54.620Z,96975.87
2019-03-31T14:43:22.055Z,96979.53
2019-03-31T14:45:49.517Z,96978.97
2019-03-31T14:48:16.947Z,96970.84
2019-03-31T14:50:44.375Z,96972.42
2019-03-31T14:53:11.781Z,96973.13
2019-03-31T14:55:39.188Z,96965.42
2019-03-31T14:58:08.272Z,96961.65
2019-03-31T15:00:34.064Z,96959.84
2019-03-31T15:03:01.666Z,96951.95
2019-03-31T15:05:29.134Z,96962.95
2019-03-31T15:07:58.534Z,96959.79
2019-03-31T15:10:24.027Z,96953.95
2019-03-31T15:12:51.447Z,96956.53
2019-03-31T15:15:18.851Z,96957.15
2019-03-31T15:17:46.259Z,96960.20
2019-03-31T15:20:13.674Z,96960.58
2019-03-31T15:22:41.066Z,96950.13
2019-03-31T15:25:08.499Z,96953.28
2019-03-31T15:27:35.936Z,96953.36
2019-03-31T15:30:03.359Z,96943.37
2019-03-31T15:32:30.746Z,96948.48
2019-03-31T15:34:58.148Z,96947.61
2019-03-31T15:37:25.687Z,96940.07
2019-03-31T15:39:53.461Z,96932.46
2019-03-31T15:42:20.897Z,96930.22
2019-03-31T15:44:48.300Z,96931.27
2019-03-31T15:47:15.813Z,96930.78
2019-03-31T15:49:43.237Z,96933.58
2019-03-31T15:52:10.639Z,96930.92
2019-03-31T15:54:38.168Z,96925.11
2019-03-31T15:57:05.567Z,96927.02
2019-03-31T15:59:32.984Z,96921.93
2019-03-31T16:02:00.464Z,96925.48
2019-03-31T16:04:27.883Z,96923.41
2019-03-31T16:06:55.272Z,96929.89
2019-03-31T16:09:23.923Z,96919.05
2019-03-31T16:11:53.925Z,96924.31
2019-03-31T16:14:17.548Z,96932.69
2019-03-31T16:16:44.967Z,96924.69
2019-03-31T16:19:12.370Z,96929.57
2019-03-31T16:21:39.792Z,96930.22
2019-03-31T16:24:07.226Z,96925.66
2019-03-31T16:26:34.631Z,96929.42
2019-03-31T16:29:02.048Z,96918.88
2019-03-31T16:31:29.461Z,96925.12
2019-03-31T16:33:56.871Z,96923.84
2019-03-31T16:36:24.687Z,96921.83
2019-03-31T16:38:52.118Z,96912.93
2019-03-31T16:41:19.535Z,96914.93
2019-03-31T16:43:46.952Z,96912.58
2019-03-31T16:46:14.430Z,96916.87
2019-03-31T16:48:42.027Z,96920.84
2019-03-31T16:51:09.531Z,96920.59
2019-03-31T16:53:36.949Z,96919.93
2019-03-31T16:56:04.355Z,96920.45
2019-03-31T16:58:31.764Z,96923.10
2019-03-31T17:00:59.388Z,96921.45
2019-03-31T17:03:26.776Z,96921.45
2019-03-31T17:05:54.186Z,96918.84
2019-03-31T17:08:21.631Z,96921.31
2019-03-31T17:10:49.124Z,96919.27
2019-03-31T17:13:16.522Z,96919.56
2019-03-31T17:15:44.334Z,96923.09
2019-03-31T17:18:11.824Z,96919.02
2019-03-31T17:20:39.319Z,96922.30
2019-03-31T17:23:06.752Z,96922.81
2019-03-31T17:25:34.205Z,96919.72
2019-03-31T17:28:02.272Z,96927.40
2019-03-31T17:30:29.710Z,96926.33
2019-03-31T17:32:57.231Z,96929.05
2019-03-31T17:35:24.695Z,96929.41
2019-03-31T17:37:52.116Z,96932.10
2019-03-31T17:40:20.838Z,96931.16
2019-03-31T17:42:49.747Z,96928.97
2019-03-31T17:45:17.595Z,96932.19
2019-03-31T17:47:45.090Z,96925.14
2019-03-31T17:50:12.631Z,96930.63
2019-03-31T17:52:40.045Z,96927.09
2019-03-31T17:55:07.453Z,96927.66
2019-03-31T17:57:34.862Z,96931.32
2019-03-31T18:00:02.285Z,96926.39
2019-03-31T18:02:29.708Z,96926.73
2019-03-31T18:04:57.096Z,96928.11
2019-03-31T18:07:24.503Z,96932.45
2019-03-31T18:09:51.933Z,96926.91
2019-03-31T18:12:19.380Z,96938.12
2019-03-31T18:14:46.809Z,96927.20
2019-03-31T18:17:14.206Z,96931.28
2019-03-31T18:19:41.642Z,96935.50
2019-03-31T18:22:16.355Z,96934.49
2019-03-31T18:24:36.436Z,96936.46
2019-03-31T18:27:03.832Z,96938.89
2019-03-31T18:29:31.283Z,96937.34
2019-03-31T18:31:58.671Z,96936.23
2019-03-31T18:34:26.088Z,96939.25
2019-03-31T18:36:53.504Z,96938.17
2019-03-31T18:39:20.971Z,96943.63
2019-03-31T18:41:48.389Z,96943.73
2019-03-31T18:44:15.809Z,96945.72
2019-03-31T18:46:43.206Z,96949.89
2019-03-31T18:49:11.527Z,96955.62
2019-03-31T18:51:39.231Z,96954.81
2019-03-31T18:54:11.613Z,96960.78
2019-03-31T18:56:39.074Z,96965.88
2019-03-31T18:59:09.089Z,96963.09
2019-03-31T19:01:37.878Z,96961.07
2019-03-31T19:07:05.235Z,96963.91
2019-03-31T19:09:47.609Z,96960.03
2019-03-31T19:12:20.785Z,96966.06
2019-03-31T19:15:00.255Z,96966.59
2019-03-31T19:20:27.125Z,96962.09
2019-03-31T19:23:15.311Z,96967.82
2019-03-31T19:25:42.748Z,96970.64
2019-03-31T19:28:14.762Z,96969.58
2019-03-31T19:30:42.976Z,96973.16
2019-03-31T19:33:16.063Z,96973.92
2019-03-31T19:35:54.437Z,96973.13
2019-03-31T19:38:26.441Z,96969.31
2019-03-31T19:41:04.063Z,96968.42
2019-03-31T19:43:33.678Z,96967.19
2019-03-31T19:46:05.701Z,96965.03
2019-03-31T19:48:31.851Z,96963.66
2019-03-31T19:51:02.158Z,96961.55
2019-03-31T19:53:50.386Z,96970.28
2019-03-31T19:56:17.845Z,96968.27
2019-03-31T19:58:50.844Z,96964.25
2019-03-31T20:01:22.873Z,96970.86
2019-03-31T20:03:55.822Z,96981.23
2019-03-31T20:06:28.944Z,96978.94
2019-03-31T20:08:58.310Z,96976.13
2019-03-31T20:11:28.633Z,96982.95
2019-03-31T20:14:01.742Z,96989.36
2019-03-31T20:16:35.184Z,96989.03
2019-03-31T20:19:05.186Z,96985.34
2019-03-31T20:21:32.992Z,96991.50
2019-03-31T20:24:06.095Z,96993.61
2019-03-31T20:26:44.319Z,96995.39
2019-03-31T20:29:12.212Z,96998.61
2019-03-31T20:31:42.527Z,96990.77
2019-03-31T20:34:10.726Z,96999.77
2019-03-31T20:36:48.047Z,97009.86
2019-03-31T20:39:17.276Z,97010.55
2019-03-31T20:41:45.486Z,97010.66
2019-03-31T20:44:12.882Z,97017.18
2019-03-31T20:46:40.310Z,97013.83
2019-03-31T20:49:07.776Z,97013.45
2019-03-31T20:51:35.170Z,97016.50
2019-03-31T20:54:02.581Z,97017.17
2019-03-31T20:56:29.983Z,97013.00
2019-03-31T20:58:57.392Z,97009.98
2019-03-31T21:01:24.822Z,97014.05
2019-03-31T21:03:52.254Z,97002.62
2019-03-31T21:06:19.679Z,97010.09
2019-03-31T21:08:48.139Z,97005.72
2019-03-31T21:11:15.543Z,97006.09
2019-03-31T21:13:42.968Z,97009.07
2019-03-31T21:16:11.049Z,97003.71
2019-03-31T21:18:38.443Z,97006.17
2019-03-31T21:21:05.868Z,97006.37
2019-03-31T21:23:33.298Z,97008.16
2019-03-31T21:26:00.698Z,97004.95
2019-03-31T21:28:28.132Z,97006.22
2019-03-31T21:30:55.547Z,97005.50
2019-03-31T21:33:22.953Z,97007.30
2019-03-31T21:35:50.359Z,97001.38
2019-03-31T21:38:17.757Z,97001.11
2019-03-31T21:40:45.175Z,96995.83
2019-03-31T21:43:12.870Z,96995.00
2019-03-31T21:45:40.286Z,96999.23
2019-03-31T21:48:07.701Z,97007.88
2019-03-31T21:50:35.106Z,96999.94
2019-03-31T21:53:02.527Z,97002.21
2019-03-31T21:55:29.950Z,97001.42
2019-03-31T21:57:57.429Z,97004.11
2019-03-31T22:00:24.836Z,97006.84
2019-03-31T22:02:52.259Z,97009.72
2019-03-31T22:05:19.692Z,97018.41
2019-03-31T22:07:47.143Z,97019.42
2019-03-31T22:10:14.586Z,97017.77
2019-03-31T22:12:42.005Z,97014.28
2019-03-31T22:15:09.479Z,97021.20
2019-03-31T22:17:36.875Z,97016.28
2019-03-31T22:20:05.327Z,97017.25
2019-03-31T22:22:32.863Z,97019.95
2019-03-31T22:25:00.528Z,97013.30
2019-03-31T22:27:27.989Z,97016.80
2019-03-31T22:29:55.440Z,97012.61
2019-03-31T22:32:22.856Z,97009.39
2019-03-31T22:34:50.654Z,97011.54
2019-03-31T22:37:18.092Z,97013.52
2019-03-31T22:39:45.520Z,97014.17
2019-03-31T22:42:12.977Z,97010.27
2019-03-31T22:44:40.387Z,97006.31
2019-03-31T22:47:07.806Z,97005.34
2019-03-31T22:49:35.198Z,97011.51
2019-03-31T22:52:02.600Z,97008.39
2019-03-31T22:54:30.024Z,97017.02
2019-03-31T22:56:57.481Z,97013.63
2019-03-31T22:59:24.920Z,97010.40
2019-03-31T23:01:52.318Z,97009.53
2019-03-31T23:04:19.747Z,97005.75
2019-03-31T23:06:47.151Z,97001.86
2019-03-31T23:09:14.662Z,97006.53
2019-03-31T23:11:42.077Z,97003.39
2019-03-31T23:14:09.491Z,96999.67
2019-03-31T23:16:36.911Z,96998.64
2019-03-31T23:19:04.338Z,97009.12
2019-03-31T23:21:31.754Z,97003.48
2019-03-31T23:23:59.157Z,97003.32
2019-03-31T23:26:26.562Z,97002.47
2019-03-31T23:28:53.987Z,97008.24
2019-03-31T23:31:21.416Z,97010.73
2019-03-31T23:33:48.810Z,97010.55
2019-03-31T23:36:16.211Z,97007.79
2019-03-31T23:38:43.622Z,97006.73
2019-03-31T23:41:11.055Z,97014.63
2019-03-31T23:43:38.443Z,97011.82
2019-03-31T23:46:05.866Z,97016.19
2019-03-31T23:48:33.280Z,97014.20
2019-03-31T23:51:00.706Z,97011.27
2019-03-31T23:53:28.097Z,97015.88
2019-03-31T23:55:55.500Z,97021.94
2019-03-31T23:58:22.970Z,97014.42
